createdAt,value
2023-01-22T00:01:15.906Z,97.40
2023-01-22T00:03:46.719Z,97.60
2023-01-22T00:06:16.025Z,97.80
2023-01-22T00:08:44.250Z,97.70
2023-01-22T00:11:13.200Z,97.60
2023-01-22T00:13:42.080Z,97.70
2023-01-22T00:16:11.718Z,97.60
2023-01-22T00:18:39.983Z,97.80
2023-01-22T00:21:09.688Z,97.80
2023-01-22T00:23:38.710Z,97.80
2023-01-22T00:26:11.048Z,97.70
2023-01-22T00:28:41.690Z,97.90
2023-01-22T00:31:11.213Z,97.80
2023-01-22T00:33:40.607Z,97.70
2023-01-22T00:36:12.585Z,97.60
2023-01-22T00:38:40.847Z,97.70
2023-01-22T00:41:10.043Z,97.80
2023-01-22T00:43:39.644Z,97.70
2023-01-22T00:46:08.314Z,97.70
2023-01-22T00:48:36.749Z,97.50
2023-01-22T00:51:05.103Z,97.60
2023-01-22T00:53:34.752Z,97.60
2023-01-22T00:56:03.519Z,97.30
2023-01-22T00:58:31.788Z,97.20
2023-01-22T01:01:01.422Z,97.20
2023-01-22T01:03:31.537Z,97.10
2023-01-22T01:06:01.955Z,96.80
2023-01-22T01:08:32.824Z,96.70
2023-01-22T01:11:04.618Z,96.60
2023-01-22T01:13:34.836Z,96.50
2023-01-22T01:16:04.797Z,97.00
2023-01-22T01:18:33.465Z,96.70
2023-01-22T01:21:02.345Z,96.50
2023-01-22T01:23:31.219Z,96.50
2023-01-22T01:25:59.607Z,96.60
2023-01-22T01:28:29.884Z,96.50
2023-01-22T01:31:02.711Z,96.80
2023-01-22T01:33:31.059Z,96.80
2023-01-22T01:36:03.133Z,96.80
2023-01-22T01:38:32.049Z,96.80
2023-01-22T01:41:00.721Z,96.80
2023-01-22T01:43:30.435Z,96.80
2023-01-22T01:46:00.818Z,96.80
2023-01-22T01:48:32.735Z,97.10
2023-01-22T01:51:04.124Z,96.90
2023-01-22T01:53:32.937Z,97.00
2023-01-22T01:56:02.551Z,97.10
2023-01-22T01:58:35.122Z,97.10
2023-01-22T02:01:07.575Z,97.00
2023-01-22T02:03:35.906Z,97.10
2023-01-22T02:06:04.299Z,97.00
2023-01-22T02:08:32.855Z,97.10
2023-01-22T02:11:01.212Z,97.10
2023-01-22T02:13:33.601Z,97.00
2023-01-22T02:16:01.858Z,97.00
2023-01-22T02:18:30.190Z,97.20
2023-01-22T02:21:00.870Z,97.00
2023-01-22T02:23:31.241Z,96.90
2023-01-22T02:25:59.924Z,96.90
2023-01-22T02:28:28.193Z,97.00
2023-01-22T02:30:56.480Z,96.90
2023-01-22T02:33:24.721Z,97.00
2023-01-22T02:35:52.916Z,97.00
2023-01-22T02:38:22.493Z,97.10
2023-01-22T02:40:50.707Z,97.20
2023-01-22T02:43:19.162Z,97.10
2023-01-22T02:45:47.534Z,97.10
2023-01-22T02:48:16.154Z,97.30
2023-01-22T02:50:45.277Z,97.30
2023-01-22T02:53:13.538Z,97.40
2023-01-22T02:55:45.091Z,97.60
2023-01-22T02:58:13.266Z,97.40
2023-01-22T03:00:41.619Z,97.30
2023-01-22T03:03:15.487Z,97.30
2023-01-22T03:05:49.191Z,97.40
2023-01-22T03:08:17.807Z,97.40
2023-01-22T03:10:49.739Z,97.40
2023-01-22T03:13:35.365Z,97.20
2023-01-22T03:16:22.500Z,96.90
2023-01-22T03:19:08.073Z,96.90
2023-01-22T03:21:36.387Z,96.60
2023-01-22T03:24:05.120Z,96.60
2023-01-22T03:26:34.703Z,96.60
2023-01-22T03:29:03.125Z,96.20
2023-01-22T03:31:31.458Z,95.80
2023-01-22T03:33:59.746Z,95.60
2023-01-22T03:36:27.906Z,95.60
2023-01-22T03:38:56.134Z,95.40
2023-01-22T03:41:24.373Z,95.40
2023-01-22T03:43:54.029Z,95.40
2023-01-22T03:46:22.340Z,95.20
2023-01-22T03:48:52.452Z,95.00
2023-01-22T03:51:21.420Z,95.10
2023-01-22T03:53:49.883Z,94.90
2023-01-22T03:56:19.662Z,95.00
2023-01-22T03:58:48.104Z,95.00
2023-01-22T04:01:20.488Z,94.90
2023-01-22T04:03:49.403Z,94.80
2023-01-22T04:06:18.707Z,94.70
2023-01-22T04:08:48.208Z,94.70
2023-01-22T04:11:17.204Z,94.70
2023-01-22T04:13:46.027Z,94.60
2023-01-22T04:16:15.262Z,94.70
2023-01-22T04:18:45.001Z,94.40
2023-01-22T04:21:14.073Z,94.60
2023-01-22T04:23:42.230Z,94.40
2023-01-22T04:26:10.463Z,94.80
2023-01-22T04:28:38.693Z,94.60
2023-01-22T04:31:08.909Z,94.50
2023-01-22T04:33:37.549Z,94.40
2023-01-22T04:36:07.432Z,94.30
2023-01-22T04:38:35.600Z,94.50
2023-01-22T04:41:03.832Z,94.30
2023-01-22T04:43:32.041Z,94.20
2023-01-22T04:46:00.351Z,94.00
2023-01-22T04:48:28.603Z,94.00
2023-01-22T04:50:56.885Z,93.80
2023-01-22T04:53:26.491Z,93.90
2023-01-22T04:55:54.742Z,93.80
2023-01-22T04:58:22.955Z,93.80
2023-01-22T05:00:51.216Z,93.80
2023-01-22T05:03:19.440Z,93.90
2023-01-22T05:05:47.662Z,93.60
2023-01-22T05:08:15.973Z,93.80
2023-01-22T05:10:45.601Z,93.90
2023-01-22T05:13:13.845Z,93.80
2023-01-22T05:15:42.218Z,93.70
2023-01-22T05:18:10.490Z,93.60
2023-01-22T05:20:38.728Z,93.50
2023-01-22T05:23:06.924Z,93.60
2023-01-22T05:25:35.176Z,93.70
2023-01-22T05:28:04.927Z,93.70
2023-01-22T05:30:33.132Z,93.70
2023-01-22T05:33:01.377Z,93.70
2023-01-22T05:35:29.543Z,93.60
2023-01-22T05:37:57.914Z,93.70
2023-01-22T05:40:26.115Z,93.60
2023-01-22T05:42:54.376Z,93.70
2023-01-22T05:45:24.009Z,93.90
2023-01-22T05:47:54.323Z,93.60
2023-01-22T05:50:22.701Z,93.70
2023-01-22T05:52:55.700Z,93.80
2023-01-22T05:55:24.149Z,94.10
2023-01-22T05:57:52.342Z,94.00
2023-01-22T06:00:21.299Z,94.10
2023-01-22T06:02:51.057Z,94.10
2023-01-22T06:05:19.347Z,94.20
2023-01-22T06:07:47.515Z,94.00
2023-01-22T06:10:16.181Z,93.90
2023-01-22T06:12:44.815Z,93.90
2023-01-22T06:15:13.659Z,94.00
2023-01-22T06:17:41.871Z,93.80
2023-01-22T06:20:12.690Z,93.70
2023-01-22T06:22:40.936Z,93.70
2023-01-22T06:25:10.085Z,93.50
2023-01-22T06:27:38.267Z,93.60
2023-01-22T06:30:07.704Z,93.50
2023-01-22T06:32:35.868Z,93.60
2023-01-22T06:35:04.154Z,93.60
2023-01-22T06:37:33.769Z,93.40
2023-01-22T06:40:01.931Z,93.40
2023-01-22T06:42:30.152Z,93.10
2023-01-22T06:44:58.338Z,93.20
2023-01-22T06:47:26.543Z,93.00
2023-01-22T06:49:54.682Z,93.20
2023-01-22T06:52:22.884Z,92.90
2023-01-22T06:54:52.485Z,92.80
2023-01-22T06:57:20.803Z,92.70
2023-01-22T06:59:48.971Z,92.80
2023-01-22T07:02:18.284Z,92.90
2023-01-22T07:04:46.690Z,92.80
2023-01-22T07:07:15.100Z,93.00
2023-01-22T07:09:43.250Z,92.90
2023-01-22T07:12:12.882Z,92.80
2023-01-22T07:14:41.091Z,92.80
2023-01-22T07:17:09.306Z,92.80
2023-01-22T07:19:37.517Z,92.80
2023-01-22T07:22:05.711Z,92.90
2023-01-22T07:24:33.937Z,92.60
2023-01-22T07:27:03.066Z,92.60
2023-01-22T07:29:32.688Z,92.60
2023-01-22T07:32:00.846Z,92.40
2023-01-22T07:34:29.080Z,92.50
2023-01-22T07:36:57.224Z,92.40
2023-01-22T07:39:25.423Z,92.40
2023-01-22T07:41:53.571Z,92.40
2023-01-22T07:44:21.762Z,92.20
2023-01-22T07:46:51.497Z,92.40
2023-01-22T07:49:19.755Z,92.50
2023-01-22T07:51:47.927Z,92.20
2023-01-22T07:54:18.438Z,92.30
2023-01-22T07:56:47.209Z,92.30
2023-01-22T07:59:15.477Z,92.40
2023-01-22T08:01:43.847Z,92.30
2023-01-22T08:04:13.554Z,92.20
2023-01-22T08:06:41.756Z,92.30
2023-01-22T08:09:09.990Z,92.20
2023-01-22T08:11:38.246Z,92.30
2023-01-22T08:14:06.399Z,92.20
2023-01-22T08:16:35.949Z,92.40
2023-01-22T08:19:04.252Z,92.30
2023-01-22T08:21:34.221Z,92.40
2023-01-22T08:24:02.506Z,92.40
2023-01-22T08:26:31.253Z,92.40
2023-01-22T08:28:59.496Z,92.30
2023-01-22T08:31:28.795Z,92.40
2023-01-22T08:33:59.240Z,92.50
2023-01-22T08:36:27.863Z,92.40
2023-01-22T08:38:57.570Z,92.50
2023-01-22T08:41:26.065Z,92.60
2023-01-22T08:43:54.321Z,92.60
2023-01-22T08:46:22.713Z,92.60
2023-01-22T08:48:50.993Z,92.70
2023-01-22T08:51:19.236Z,92.70
2023-01-22T08:53:47.469Z,92.70
2023-01-22T08:56:17.143Z,92.50
2023-01-22T08:58:45.346Z,92.50
2023-01-22T09:01:16.790Z,92.70
2023-01-22T09:03:45.025Z,92.80
2023-01-22T09:06:13.880Z,92.90
2023-01-22T09:08:42.166Z,93.00
2023-01-22T09:11:10.654Z,92.70
2023-01-22T09:13:40.264Z,92.80
2023-01-22T09:16:11.039Z,92.90
2023-01-22T09:18:39.465Z,92.80
2023-01-22T09:21:08.321Z,92.90
2023-01-22T09:23:36.597Z,92.80
2023-01-22T09:26:05.007Z,92.80
2023-01-22T09:28:35.152Z,92.80
2023-01-22T09:31:06.114Z,92.80
2023-01-22T09:33:34.394Z,92.90
2023-01-22T09:36:10.622Z,92.80
2023-01-22T09:38:38.993Z,92.80
2023-01-22T09:41:15.007Z,92.70
2023-01-22T09:43:48.438Z,92.80
2023-01-22T09:46:21.735Z,92.80
2023-01-22T09:48:53.547Z,92.80
2023-01-22T09:51:22.463Z,92.80
2023-01-22T09:53:55.848Z,92.70
2023-01-22T09:56:29.803Z,92.70
2023-01-22T09:58:58.778Z,92.80
2023-01-22T10:01:28.972Z,92.80
2023-01-22T10:04:01.368Z,92.80
2023-01-22T10:06:30.270Z,92.80
2023-01-22T10:09:07.247Z,93.00
2023-01-22T10:11:35.890Z,92.90
2023-01-22T10:14:07.122Z,92.80
2023-01-22T10:16:37.642Z,92.80
2023-01-22T10:19:08.607Z,92.80
2023-01-22T10:21:42.778Z,92.90
2023-01-22T10:24:12.103Z,93.00
2023-01-22T10:26:41.937Z,92.90
2023-01-22T10:29:13.396Z,92.90
2023-01-22T10:31:47.956Z,92.90
2023-01-22T10:34:18.517Z,93.00
2023-01-22T10:36:51.133Z,92.90
2023-01-22T10:39:20.478Z,92.90
2023-01-22T10:41:49.586Z,93.00
2023-01-22T10:44:23.288Z,93.00
2023-01-22T10:46:53.902Z,93.10
2023-01-22T10:49:23.781Z,92.90
2023-01-22T10:51:55.032Z,92.70
2023-01-22T10:54:27.376Z,92.70
2023-01-22T10:57:06.029Z,92.80
2023-01-22T10:59:34.707Z,92.90
2023-01-22T11:02:13.251Z,92.70
2023-01-22T11:04:41.509Z,92.50
2023-01-22T11:07:13.480Z,92.50
2023-01-22T11:09:43.824Z,92.40
2023-01-22T11:12:17.401Z,92.20
2023-01-22T11:14:47.195Z,92.30
2023-01-22T11:17:20.513Z,92.00
2023-01-22T11:19:53.123Z,92.20
2023-01-22T11:22:27.970Z,92.30
2023-01-22T11:24:56.277Z,92.10
2023-01-22T11:27:38.130Z,92.20
2023-01-22T11:30:21.764Z,92.20
2023-01-22T11:33:00.545Z,92.00
2023-01-22T11:35:34.748Z,92.10
2023-01-22T11:38:19.165Z,92.10
2023-01-22T11:41:18.912Z,92.10
2023-01-22T11:43:58.653Z,92.00
2023-01-22T11:46:36.423Z,92.20
2023-01-22T11:49:14.685Z,92.00
2023-01-22T11:51:50.539Z,91.90
2023-01-22T11:54:29.814Z,91.80
2023-01-22T11:57:06.752Z,91.90
2023-01-22T11:59:44.299Z,91.80
2023-01-22T12:02:29.116Z,91.70
2023-01-22T12:05:13.808Z,91.80
2023-01-22T12:08:18.581Z,91.90
2023-01-22T12:11:08.906Z,92.10
2023-01-22T12:13:47.721Z,92.00
2023-01-22T12:16:23.106Z,91.60
2023-01-22T12:19:18.521Z,92.90
2023-01-22T12:21:57.520Z,91.80
2023-01-22T12:24:31.974Z,91.70
2023-01-22T12:27:03.997Z,91.90
2023-01-22T12:29:35.849Z,91.50
2023-01-22T12:32:09.059Z,91.50
2023-01-22T12:34:42.411Z,91.20
2023-01-22T12:37:14.837Z,91.30
2023-01-22T12:39:48.517Z,91.20
2023-01-22T12:42:22.552Z,90.60
2023-01-22T12:45:00.262Z,90.60
2023-01-22T12:47:32.810Z,90.80
2023-01-22T12:50:02.006Z,90.90
2023-01-22T12:52:36.725Z,90.90
2023-01-22T12:55:23.138Z,91.00
2023-01-22T12:57:51.400Z,91.10
2023-01-22T13:00:30.363Z,91.10
2023-01-22T13:02:59.038Z,91.40
2023-01-22T13:05:39.740Z,91.50
2023-01-22T13:08:29.043Z,91.40
2023-01-22T13:10:59.018Z,91.50
2023-01-22T13:13:30.705Z,91.60
2023-01-22T13:16:03.170Z,91.60
2023-01-22T13:18:36.240Z,91.60
2023-01-22T13:21:06.542Z,91.70
2023-01-22T13:23:37.640Z,91.80
2023-01-22T13:26:06.084Z,91.80
2023-01-22T13:28:34.386Z,91.80
2023-01-22T13:31:04.978Z,91.80
2023-01-22T13:33:33.657Z,91.80
2023-01-22T13:36:09.183Z,91.90
2023-01-22T13:38:39.055Z,91.90
2023-01-22T13:41:10.000Z,92.10
2023-01-22T13:43:39.192Z,92.10
2023-01-22T13:46:07.709Z,92.00
2023-01-22T13:48:35.992Z,92.00
2023-01-22T13:51:06.836Z,92.10
2023-01-22T13:53:38.576Z,92.30
2023-01-22T13:56:15.889Z,92.30
2023-01-22T13:58:48.813Z,92.30
2023-01-22T14:01:28.666Z,92.30
2023-01-22T14:04:01.562Z,92.50
2023-01-22T14:06:30.622Z,92.30
2023-01-22T14:08:59.306Z,92.30
2023-01-22T14:11:38.862Z,92.50
2023-01-22T14:14:16.402Z,92.30
2023-01-22T14:16:44.780Z,92.50
2023-01-22T14:19:13.230Z,92.50
2023-01-22T14:21:41.512Z,92.60
2023-01-22T14:24:10.008Z,92.70
2023-01-22T14:26:39.821Z,92.80
2023-01-22T14:29:08.619Z,92.90
2023-01-22T14:31:36.917Z,93.00
2023-01-22T14:34:05.265Z,93.10
2023-01-22T14:36:33.487Z,93.20
2023-01-22T14:39:01.713Z,93.40
2023-01-22T14:41:29.939Z,93.70
2023-01-22T14:43:59.529Z,93.60
2023-01-22T14:46:27.746Z,93.70
2023-01-22T14:48:55.996Z,93.80
2023-01-22T14:51:24.299Z,93.80
2023-01-22T14:53:52.485Z,93.80
2023-01-22T14:56:20.839Z,93.80
2023-01-22T14:58:49.700Z,93.80
2023-01-22T15:01:22.640Z,93.80
2023-01-22T15:03:50.891Z,93.90
2023-01-22T15:06:19.173Z,94.00
2023-01-22T15:08:47.340Z,94.10
2023-01-22T15:11:15.626Z,94.10
2023-01-22T15:13:43.791Z,94.20
2023-01-22T15:16:12.862Z,94.30
2023-01-22T15:18:42.775Z,94.40
2023-01-22T15:21:11.545Z,94.40
2023-01-22T15:23:39.761Z,94.40
2023-01-22T15:26:09.642Z,94.40
2023-01-22T15:28:38.004Z,94.40
2023-01-22T15:31:07.939Z,94.40
2023-01-22T15:33:36.452Z,94.50
2023-01-22T15:36:06.810Z,94.70
2023-01-22T15:38:35.072Z,94.80
2023-01-22T15:41:05.202Z,94.90
2023-01-22T15:43:33.673Z,95.00
2023-01-22T15:46:01.887Z,95.10
2023-01-22T15:48:30.128Z,95.40
2023-01-22T15:51:08.894Z,95.50
2023-01-22T15:53:37.250Z,95.60
2023-01-22T15:56:06.647Z,95.60
2023-01-22T15:58:35.656Z,95.70
2023-01-22T16:01:03.949Z,95.70
2023-01-22T16:03:32.154Z,95.70
2023-01-22T16:06:11.195Z,95.80
2023-01-22T16:08:39.381Z,95.80
2023-01-22T16:11:07.871Z,95.90
2023-01-22T16:13:36.112Z,96.00
2023-01-22T16:16:05.986Z,96.10
2023-01-22T16:18:34.937Z,96.10
2023-01-22T16:21:03.493Z,96.00
2023-01-22T16:23:34.486Z,95.90
2023-01-22T16:26:05.966Z,96.00
2023-01-22T16:28:34.209Z,96.10
2023-01-22T16:31:04.367Z,96.20
2023-01-22T16:33:33.585Z,96.40
2023-01-22T16:36:02.247Z,96.50
2023-01-22T16:38:32.640Z,96.70
2023-01-22T16:41:24.094Z,96.70
2023-01-22T16:43:54.488Z,96.60
2023-01-22T16:46:24.510Z,96.70
2023-01-22T16:49:03.742Z,96.60
2023-01-22T16:51:35.814Z,96.50
2023-01-22T16:54:06.337Z,96.40
2023-01-22T16:56:35.210Z,96.40
2023-01-22T16:59:03.597Z,96.50
2023-01-22T17:01:32.148Z,96.60
2023-01-22T17:04:00.408Z,96.60
2023-01-22T17:06:31.326Z,96.50
2023-01-22T17:09:00.077Z,96.50
2023-01-22T17:11:29.836Z,96.50
2023-01-22T17:13:58.039Z,96.60
2023-01-22T17:16:26.353Z,96.60
2023-01-22T17:18:55.205Z,96.50
2023-01-22T17:21:23.586Z,96.40
2023-01-22T17:23:51.773Z,96.30
2023-01-22T17:26:20.015Z,96.50
2023-01-22T17:28:49.661Z,96.60
2023-01-22T17:31:19.119Z,96.60
2023-01-22T17:33:47.812Z,96.50
2023-01-22T17:36:18.916Z,96.40
2023-01-22T17:38:47.534Z,96.30
2023-01-22T17:41:17.969Z,96.20
2023-01-22T17:43:47.390Z,96.10
2023-01-22T17:46:18.616Z,96.20
2023-01-22T17:48:47.621Z,96.20
2023-01-22T17:51:18.140Z,96.30
2023-01-22T17:53:47.933Z,96.30
2023-01-22T17:56:18.523Z,96.20
2023-01-22T17:58:50.284Z,96.40
2023-01-22T18:01:23.784Z,96.60
2023-01-22T18:03:52.153Z,96.40
2023-01-22T18:06:20.542Z,96.40
2023-01-22T18:08:48.696Z,96.50
2023-01-22T18:11:17.987Z,96.50
2023-01-22T18:13:46.430Z,96.60
2023-01-22T18:16:16.305Z,96.70
2023-01-22T18:18:46.229Z,96.80
2023-01-22T18:21:16.536Z,96.70
2023-01-22T18:23:45.142Z,96.80
2023-01-22T18:26:14.382Z,96.80
2023-01-22T18:28:43.103Z,96.80
2023-01-22T18:31:13.348Z,96.70
2023-01-22T18:33:44.499Z,96.90
2023-01-22T18:36:16.284Z,96.80
2023-01-22T18:38:45.185Z,96.90
2023-01-22T18:41:15.141Z,96.90
2023-01-22T18:43:43.824Z,96.80
2023-01-22T18:46:13.537Z,96.80
2023-01-22T18:48:43.269Z,97.00
2023-01-22T18:51:13.331Z,97.00
2023-01-22T18:53:43.617Z,97.10
2023-01-22T18:56:12.861Z,97.10
2023-01-22T18:58:44.419Z,97.10
2023-01-22T19:01:14.378Z,97.10
2023-01-22T19:03:44.383Z,97.20
2023-01-22T19:06:15.893Z,97.30
2023-01-22T19:08:47.082Z,97.30
2023-01-22T19:11:17.250Z,97.50
2023-01-22T19:13:46.032Z,97.60
2023-01-22T19:16:15.865Z,97.70
2023-01-22T19:18:46.613Z,97.70
2023-01-22T19:21:16.322Z,97.60
2023-01-22T19:23:47.475Z,97.60
2023-01-22T19:26:17.982Z,97.60
2023-01-22T19:28:46.389Z,97.80
2023-01-22T19:31:19.003Z,97.60
2023-01-22T19:33:47.719Z,97.50
2023-01-22T19:36:15.981Z,97.60
2023-01-22T19:38:44.498Z,97.50
2023-01-22T19:41:14.387Z,97.50
2023-01-22T19:43:43.071Z,97.40
2023-01-22T19:46:13.986Z,97.50
2023-01-22T19:48:42.596Z,97.50
2023-01-22T19:51:12.932Z,97.40
2023-01-22T19:53:41.533Z,97.30
2023-01-22T19:56:16.847Z,97.30
2023-01-22T19:58:45.165Z,97.30
2023-01-22T20:01:13.891Z,97.40
2023-01-22T20:03:42.123Z,97.30
2023-01-22T20:06:12.156Z,97.30
2023-01-22T20:08:40.526Z,97.30
2023-01-22T20:11:10.406Z,97.30
2023-01-22T20:13:40.411Z,97.30
2023-01-22T20:16:16.936Z,97.30
2023-01-22T20:18:45.287Z,97.20
2023-01-22T20:21:14.516Z,97.20
2023-01-22T20:23:42.763Z,97.20
2023-01-22T20:26:11.612Z,97.20
2023-01-22T20:28:41.237Z,97.20
2023-01-22T20:31:13.320Z,97.30
2023-01-22T20:33:41.808Z,97.40
2023-01-22T20:36:11.854Z,97.40
2023-01-22T20:38:40.032Z,97.40
2023-01-22T20:41:09.938Z,97.50
2023-01-22T20:43:39.528Z,97.40
2023-01-22T20:46:12.588Z,97.40
2023-01-22T20:48:41.321Z,97.40
2023-01-22T20:51:15.114Z,97.60
2023-01-22T20:53:43.867Z,97.70
2023-01-22T20:56:14.130Z,97.60
2023-01-22T20:58:42.431Z,97.60
2023-01-22T21:01:14.653Z,97.60
2023-01-22T21:03:43.247Z,97.60
2023-01-22T21:06:14.384Z,97.60
2023-01-22T21:08:43.005Z,97.50
2023-01-22T21:11:13.365Z,97.60
2023-01-22T21:13:41.726Z,97.70
2023-01-22T21:16:13.539Z,97.60
2023-01-22T21:18:44.377Z,97.60
2023-01-22T21:21:13.969Z,97.60
2023-01-22T21:23:42.298Z,97.50
2023-01-22T21:26:12.793Z,97.50
2023-01-22T21:28:40.934Z,97.60
2023-01-22T21:31:10.260Z,97.60
2023-01-22T21:33:40.317Z,97.70
2023-01-22T21:36:10.108Z,97.70
2023-01-22T21:38:38.739Z,97.70
2023-01-22T21:41:08.599Z,97.70
2023-01-22T21:43:54.828Z,97.70
2023-01-22T21:46:25.094Z,97.80
2023-01-22T21:48:58.271Z,98.00
2023-01-22T21:51:26.684Z,97.70
2023-01-22T21:53:55.713Z,97.70
2023-01-22T21:56:24.291Z,97.80
2023-01-22T21:58:52.471Z,97.90
2023-01-22T22:01:22.225Z,97.90
2023-01-22T22:03:50.508Z,97.80
2023-01-22T22:06:20.136Z,97.80
2023-01-22T22:08:48.415Z,97.70
2023-01-22T22:11:16.635Z,97.70
2023-01-22T22:13:44.853Z,97.70
2023-01-22T22:16:14.164Z,97.80
2023-01-22T22:18:42.468Z,97.80
2023-01-22T22:21:11.238Z,98.20
2023-01-22T22:23:40.844Z,97.90
2023-01-22T22:26:10.110Z,98.10
2023-01-22T22:28:38.429Z,98.00
2023-01-22T22:31:10.362Z,98.00
2023-01-22T22:33:39.836Z,98.10
2023-01-22T22:36:08.629Z,98.10
2023-01-22T22:38:37.173Z,98.10
2023-01-22T22:41:08.635Z,98.10
2023-01-22T22:43:37.891Z,98.10
2023-01-22T22:46:07.594Z,98.20
2023-01-22T22:48:36.000Z,98.10
2023-01-22T22:51:12.415Z,98.40
2023-01-22T22:53:40.832Z,98.10
2023-01-22T22:56:12.071Z,98.20
2023-01-22T22:58:40.697Z,98.10
2023-01-22T23:01:10.009Z,98.10
2023-01-22T23:03:38.677Z,98.10
2023-01-22T23:06:10.431Z,98.10
2023-01-22T23:08:39.335Z,98.10
2023-01-22T23:11:09.217Z,98.10
2023-01-22T23:13:39.568Z,98.10
2023-01-22T23:16:09.461Z,98.10
2023-01-22T23:18:37.777Z,98.10
2023-01-22T23:21:06.523Z,98.10
2023-01-22T23:23:35.289Z,98.10
2023-01-22T23:26:04.191Z,98.10
2023-01-22T23:28:32.407Z,98.10
2023-01-22T23:31:06.907Z,98.10
2023-01-22T23:33:35.216Z,98.00
2023-01-22T23:36:04.001Z,98.00
2023-01-22T23:38:32.442Z,97.90
2023-01-22T23:41:01.367Z,98.00
2023-01-22T23:43:29.896Z,97.90
2023-01-22T23:45:58.140Z,97.90
2023-01-22T23:48:28.579Z,97.90
2023-01-22T23:50:56.793Z,98.00
2023-01-22T23:53:25.035Z,97.90
2023-01-22T23:55:59.479Z,97.90
2023-01-22T23:58:27.764Z,97.90
